Time;durP1;ratioP1;P1;durP2;ratioP2;P2;SDS_P1;SDS_P2;PMS_P1;PMS_P2;Temp;Humidity;BMP_temperature;BMP_pressure;BME280_temperature;BME280_humidity;BME280_pressure;Samples;Min_cycle;Max_cycle;Signal;HPM_P1;HPM_P2
2021/12/08 00:00:23;;;;;;;24.60;19.15;;;;;;;;;;4993146;28;20057;-55
2021/12/08 00:02:50;;;;;;;32.65;22.10;;;;;;;;;;4992303;28;20147;-54
2021/12/08 00:05:18;;;;;;;25.15;16.75;;;;;;;;;;4992746;28;20045;-54
2021/12/08 00:07:46;;;;;;;20.42;14.88;;;;;;;;;;4993291;28;20046;-51
2021/12/08 00:10:28;;;;;;;15.40;12.77;;;;;;;;;;4992227;28;20536;-56
2021/12/08 00:15:35;;;;;;;16.83;12.10;;;;;;;;;;4990918;28;20460;-55
2021/12/08 00:18:09;;;;;;;19.60;13.25;;;;;;;;;;4991167;28;20489;-52
2021/12/08 00:20:37;;;;;;;18.58;14.07;;;;;;;;;;4990972;28;20050;-55
2021/12/08 00:23:05;;;;;;;17.08;12.52;;;;;;;;;;4991193;28;20109;-53
2021/12/08 00:25:33;;;;;;;15.65;10.90;;;;;;;;;;4991940;28;20038;-53
2021/12/08 00:28:00;;;;;;;14.82;10.77;;;;;;;;;;4992861;28;20053;-54
2021/12/08 00:30:28;;;;;;;11.38;10.18;;;;;;;;;;4987901;28;20053;-54
2021/12/08 00:32:58;;;;;;;14.02;11.68;;;;;;;;;;4987232;28;20042;-54
2021/12/08 00:35:27;;;;;;;12.48;9.93;;;;;;;;;;4997168;28;20050;-54
2021/12/08 00:37:55;;;;;;;14.48;11.88;;;;;;;;;;4996520;28;20108;-53
2021/12/08 00:40:24;;;;;;;14.05;11.65;;;;;;;;;;4996967;28;20065;-55
2021/12/08 00:42:51;;;;;;;20.90;13.10;;;;;;;;;;4996392;28;20045;-54
2021/12/08 00:45:18;;;;;;;16.73;13.77;;;;;;;;;;4997029;28;20050;-52
2021/12/08 00:47:46;;;;;;;14.85;11.27;;;;;;;;;;4996247;28;20046;-51
2021/12/08 00:50:14;;;;;;;21.10;13.00;;;;;;;;;;4997036;28;20061;-56
2021/12/08 00:52:41;;;;;;;27.08;17.00;;;;;;;;;;4996667;28;20466;-53
2021/12/08 00:55:12;;;;;;;18.55;13.55;;;;;;;;;;4996496;28;20046;-54
2021/12/08 00:57:39;;;;;;;17.98;14.85;;;;;;;;;;4996961;28;20043;-48
2021/12/08 01:00:10;;;;;;;22.38;15.48;;;;;;;;;;4996350;28;20504;-50
2021/12/08 01:02:39;;;;;;;21.02;15.60;;;;;;;;;;4997009;28;20050;-51
2021/12/08 01:05:08;;;;;;;21.13;15.13;;;;;;;;;;4996257;28;20087;-53
2021/12/08 01:07:35;;;;;;;18.13;15.95;;;;;;;;;;4996793;28;20401;-52
2021/12/08 01:10:07;;;;;;;19.70;14.10;;;;;;;;;;4995939;28;20054;-50
2021/12/08 01:12:55;;;;;;;25.30;16.98;;;;;;;;;;4996776;28;20093;-52
2021/12/08 01:15:25;;;;;;;24.45;16.38;;;;;;;;;;4996323;28;20046;-50
2021/12/08 01:17:54;;;;;;;24.13;16.63;;;;;;;;;;4996205;28;20047;-53
2021/12/08 01:20:21;;;;;;;18.63;14.77;;;;;;;;;;4996561;28;20042;-54
2021/12/08 01:22:48;;;;;;;19.15;14.43;;;;;;;;;;4996373;28;20038;-51
2021/12/08 01:25:15;;;;;;;20.08;15.50;;;;;;;;;;4996556;28;20054;-55
2021/12/08 01:27:42;;;;;;;21.70;14.40;;;;;;;;;;4996280;28;20485;-52
2021/12/08 01:30:11;;;;;;;20.13;17.05;;;;;;;;;;4996339;28;20489;-49
2021/12/08 01:32:37;;;;;;;17.73;15.35;;;;;;;;;;4995862;28;20066;-50
2021/12/08 01:35:06;;;;;;;18.33;13.35;;;;;;;;;;4994624;28;20043;-49
2021/12/08 01:37:34;;;;;;;16.48;13.23;;;;;;;;;;4994833;28;20504;-48
2021/12/08 01:40:04;;;;;;;22.92;14.98;;;;;;;;;;4995900;28;20054;-49
2021/12/08 01:42:36;;;;;;;15.80;13.23;;;;;;;;;;4995568;28;20049;-54
2021/12/08 01:47:51;;;;;;;18.33;13.57;;;;;;;;;;4995928;28;20053;-55
2021/12/08 01:50:18;;;;;;;15.10;11.85;;;;;;;;;;4996315;28;20097;-53
2021/12/08 01:52:45;;;;;;;16.88;14.88;;;;;;;;;;4996019;28;20053;-55
2021/12/08 01:55:12;;;;;;;20.75;13.27;;;;;;;;;;4995756;28;20117;-56
2021/12/08 01:57:43;;;;;;;18.92;14.13;;;;;;;;;;4995097;28;20046;-53
2021/12/08 02:00:17;;;;;;;19.73;14.63;;;;;;;;;;4995767;28;20034;-57
2021/12/08 02:02:44;;;;;;;18.83;15.10;;;;;;;;;;4995957;28;20057;-54
2021/12/08 02:05:11;;;;;;;20.70;14.63;;;;;;;;;;4995419;28;20297;-56
2021/12/08 02:07:38;;;;;;;18.55;12.52;;;;;;;;;;4995615;28;20486;-55
2021/12/08 02:10:06;;;;;;;20.27;14.30;;;;;;;;;;5023534;23;20141;-58
2021/12/08 02:12:37;;;;;;;14.52;11.13;;;;;;;;;;5015092;28;20038;-58
2021/12/08 02:15:06;;;;;;;22.35;13.00;;;;;;;;;;5014999;28;20049;-58
2021/12/08 02:17:34;;;;;;;15.32;12.80;;;;;;;;;;5015078;28;20049;-57
2021/12/08 02:20:03;;;;;;;13.82;11.95;;;;;;;;;;5015102;28;20444;-58
2021/12/08 02:22:29;;;;;;;16.83;12.27;;;;;;;;;;5014760;28;20497;-58
2021/12/08 02:24:57;;;;;;;17.20;12.63;;;;;;;;;;5015235;28;20057;-59
2021/12/08 02:27:24;;;;;;;15.50;12.30;;;;;;;;;;5014604;28;20061;-58
2021/12/08 02:29:57;;;;;;;18.00;13.30;;;;;;;;;;5014931;28;20042;-58
2021/12/08 02:46:45;;;;;;;19.17;12.93;;;;;;;;;;5014733;28;20045;-58
2021/12/08 02:49:05;;;;;;;21.35;14.75;;;;;;;;;;4994884;28;20038;-58
2021/12/08 02:51:33;;;;;;;19.55;14.95;;;;;;;;;;4995130;28;20105;-58
2021/12/08 02:54:00;;;;;;;19.45;16.27;;;;;;;;;;4994872;28;20055;-57
2021/12/08 02:56:27;;;;;;;20.38;15.05;;;;;;;;;;4994138;28;20508;-58
2021/12/08 02:58:54;;;;;;;23.83;16.83;;;;;;;;;;4994420;28;20411;-58
2021/12/08 03:01:21;;;;;;;21.80;15.23;;;;;;;;;;4994887;28;20042;-60
2021/12/08 03:03:48;;;;;;;24.20;16.95;;;;;;;;;;4994800;28;20050;-59
2021/12/08 03:06:15;;;;;;;23.55;16.67;;;;;;;;;;4994682;28;20103;-59
2021/12/08 03:08:42;;;;;;;21.40;16.38;;;;;;;;;;4994324;28;20205;-59
2021/12/08 03:11:09;;;;;;;24.70;17.08;;;;;;;;;;4994177;28;20448;-59
2021/12/08 03:13:42;;;;;;;23.50;19.02;;;;;;;;;;4994774;28;20050;-60
2021/12/08 03:16:11;;;;;;;27.98;21.33;;;;;;;;;;4994182;28;20050;-60
2021/12/08 03:18:40;;;;;;;27.70;21.17;;;;;;;;;;4994404;28;20501;-59
2021/12/08 03:21:09;;;;;;;31.30;22.20;;;;;;;;;;4994001;28;20054;-59
2021/12/08 03:24:06;;;;;;;27.15;21.77;;;;;;;;;;4994331;28;20518;-59
2021/12/08 03:26:34;;;;;;;25.20;21.10;;;;;;;;;;4994161;28;20052;-58
2021/12/08 03:29:16;;;;;;;27.48;22.73;;;;;;;;;;4994384;28;20046;-58
2021/12/08 03:31:45;;;;;;;26.15;20.15;;;;;;;;;;4991337;28;20055;-58
2021/12/08 03:34:12;;;;;;;26.85;21.70;;;;;;;;;;4987876;28;20065;-58
2021/12/08 03:36:39;;;;;;;24.90;20.02;;;;;;;;;;4990366;28;20508;-59
2021/12/08 03:39:06;;;;;;;24.65;21.58;;;;;;;;;;4993469;28;20045;-58
2021/12/08 03:41:34;;;;;;;26.30;20.23;;;;;;;;;;4993612;28;20042;-58
2021/12/08 03:44:04;;;;;;;26.35;19.20;;;;;;;;;;4993591;28;20040;-58
2021/12/08 03:46:35;;;;;;;26.48;20.42;;;;;;;;;;4993934;28;20049;-58
2021/12/08 03:49:05;;;;;;;28.35;20.55;;;;;;;;;;4993640;28;20046;-58
2021/12/08 03:51:32;;;;;;;25.00;21.17;;;;;;;;;;4993716;28;20440;-59
2021/12/08 03:53:59;;;;;;;27.02;19.33;;;;;;;;;;4993228;28;20045;-58
2021/12/08 03:56:26;;;;;;;23.55;19.67;;;;;;;;;;4993456;28;20042;-58
2021/12/08 03:58:53;;;;;;;29.55;21.35;;;;;;;;;;4993013;28;20038;-57
2021/12/08 04:01:20;;;;;;;25.58;20.00;;;;;;;;;;4993513;28;20501;-58
2021/12/08 04:03:50;;;;;;;26.77;21.52;;;;;;;;;;4993388;28;20136;-57
2021/12/08 04:06:31;;;;;;;27.88;19.80;;;;;;;;;;4992786;28;20497;-59
2021/12/08 04:09:02;;;;;;;27.63;21.88;;;;;;;;;;4992786;28;20056;-58
2021/12/08 04:11:29;;;;;;;23.83;19.80;;;;;;;;;;4993087;28;20061;-59
2021/12/08 04:14:08;;;;;;;25.45;20.13;;;;;;;;;;4993185;28;20093;-58
2021/12/08 04:16:45;;;;;;;27.33;21.73;;;;;;;;;;4992986;28;20046;-58
2021/12/08 04:19:12;;;;;;;25.65;19.70;;;;;;;;;;4993413;28;20050;-58
2021/12/08 04:21:41;;;;;;;26.83;20.73;;;;;;;;;;4992861;28;20042;-59
2021/12/08 04:24:09;;;;;;;26.13;20.02;;;;;;;;;;4993375;28;20038;-58
2021/12/08 04:27:06;;;;;;;29.20;20.83;;;;;;;;;;4993065;28;20042;-58
2021/12/08 04:29:36;;;;;;;28.70;20.45;;;;;;;;;;4985204;28;20443;-54
2021/12/08 04:32:04;;;;;;;26.02;20.67;;;;;;;;;;4992992;28;20069;-57
2021/12/08 04:34:34;;;;;;;28.70;20.25;;;;;;;;;;4993278;28;20046;-57
2021/12/08 04:37:07;;;;;;;25.20;19.23;;;;;;;;;;4992870;28;20042;-58
2021/12/08 04:42:19;;;;;;;25.08;19.80;;;;;;;;;;4990598;28;20046;-57
2021/12/08 04:44:53;;;;;;;28.88;20.23;;;;;;;;;;4992381;28;20496;-53
2021/12/08 04:50:27;;;;;;;23.38;18.75;;;;;;;;;;4986638;28;20516;-59
2021/12/08 04:53:29;;;;;;;28.40;18.88;;;;;;;;;;4992095;28;20066;-58
2021/12/08 05:01:56;;;;;;;26.30;19.30;;;;;;;;;;4992364;28;20042;-59
2021/12/08 05:09:31;;;;;;;22.65;19.52;;;;;;;;;;4986492;28;20057;-58
2021/12/08 05:12:09;;;;;;;26.42;19.73;;;;;;;;;;4992392;28;20585;-58
2021/12/08 05:15:11;;;;;;;28.40;19.30;;;;;;;;;;4992716;28;20057;-57
2021/12/08 05:17:48;;;;;;;21.20;17.75;;;;;;;;;;4987330;28;20057;-58
2021/12/08 05:20:31;;;;;;;22.92;19.80;;;;;;;;;;4994565;28;20047;-58
2021/12/08 05:23:03;;;;;;;22.92;18.15;;;;;;;;;;4996346;28;20039;-60
2021/12/08 05:25:33;;;;;;;25.35;18.95;;;;;;;;;;4995936;28;20053;-59
2021/12/08 05:28:03;;;;;;;25.73;17.98;;;;;;;;;;4996057;28;20088;-59
2021/12/08 05:30:40;;;;;;;30.45;20.50;;;;;;;;;;4976946;28;20551;-59
2021/12/08 05:33:10;;;;;;;22.05;16.90;;;;;;;;;;4989951;28;20038;-60
2021/12/08 05:35:39;;;;;;;22.30;19.05;;;;;;;;;;4996144;28;20497;-59
2021/12/08 05:38:06;;;;;;;23.77;19.80;;;;;;;;;;4996089;28;20137;-60
2021/12/08 05:40:36;;;;;;;33.92;18.58;;;;;;;;;;4996009;28;20042;-62
2021/12/08 05:43:04;;;;;;;25.33;19.90;;;;;;;;;;4996066;28;20452;-58
2021/12/08 05:45:31;;;;;;;21.35;17.27;;;;;;;;;;4996265;28;20054;-59
2021/12/08 05:47:58;;;;;;;24.92;20.48;;;;;;;;;;4996070;28;20038;-58
2021/12/08 05:50:40;;;;;;;26.88;20.23;;;;;;;;;;4996322;28;20042;-58
2021/12/08 05:53:07;;;;;;;28.00;21.48;;;;;;;;;;4995762;28;20097;-56
2021/12/08 05:55:35;;;;;;;27.05;19.10;;;;;;;;;;4995940;28;20501;-57
2021/12/08 05:58:04;;;;;;;22.20;19.23;;;;;;;;;;4995761;28;20042;-57
2021/12/08 06:00:43;;;;;;;22.50;19.38;;;;;;;;;;4995790;28;20046;-57
2021/12/08 06:03:11;;;;;;;30.80;19.67;;;;;;;;;;4996055;28;20436;-55
2021/12/08 06:05:39;;;;;;;23.23;18.38;;;;;;;;;;4995747;28;20138;-55
2021/12/08 06:08:06;;;;;;;22.65;18.98;;;;;;;;;;4995471;28;20038;-55
2021/12/08 06:10:36;;;;;;;25.73;17.67;;;;;;;;;;4995130;28;20061;-56
2021/12/08 06:13:04;;;;;;;23.55;19.33;;;;;;;;;;4995864;28;20075;-55
2021/12/08 06:15:31;;;;;;;35.33;19.23;;;;;;;;;;4995271;28;20042;-57
2021/12/08 06:17:58;;;;;;;22.17;18.13;;;;;;;;;;4995578;28;20049;-55
2021/12/08 06:20:30;;;;;;;26.15;20.15;;;;;;;;;;4995198;28;20073;-58
2021/12/08 06:22:57;;;;;;;22.73;18.40;;;;;;;;;;4995495;28;20038;-59
2021/12/08 06:25:25;;;;;;;24.00;18.55;;;;;;;;;;4994932;28;20489;-59
2021/12/08 06:27:53;;;;;;;31.08;19.30;;;;;;;;;;4995162;28;20057;-59
2021/12/08 06:30:24;;;;;;;26.55;19.35;;;;;;;;;;4994866;28;20121;-58
2021/12/08 06:32:51;;;;;;;24.58;18.85;;;;;;;;;;4994454;28;20046;-58
2021/12/08 06:35:36;;;;;;;25.83;19.33;;;;;;;;;;4995108;28;20042;-58
2021/12/08 06:38:04;;;;;;;30.02;20.77;;;;;;;;;;4994970;28;20437;-59
2021/12/08 06:40:39;;;;;;;23.33;18.20;;;;;;;;;;4995082;28;20049;-58
2021/12/08 06:43:09;;;;;;;30.20;21.80;;;;;;;;;;4993381;28;20053;-59
2021/12/08 06:45:39;;;;;;;32.75;26.48;;;;;;;;;;4987255;28;20054;-59
2021/12/08 06:48:09;;;;;;;29.52;22.60;;;;;;;;;;4989582;28;20551;-59
2021/12/08 06:51:02;;;;;;;26.00;19.63;;;;;;;;;;4988518;28;20508;-59
2021/12/08 06:53:30;;;;;;;24.35;20.67;;;;;;;;;;4990367;28;20142;-58
2021/12/08 06:56:09;;;;;;;23.38;19.92;;;;;;;;;;4991851;28;20053;-58
2021/12/08 06:58:39;;;;;;;25.25;22.27;;;;;;;;;;4987781;28;20038;-60
2021/12/08 07:09:23;;;;;;;29.17;22.98;;;;;;;;;;4989522;28;20489;-57
2021/12/08 07:11:52;;;;;;;31.05;23.38;;;;;;;;;;4989015;28;20039;-58
2021/12/08 07:14:20;;;;;;;32.30;26.55;;;;;;;;;;4984181;28;20043;-58
2021/12/08 07:16:51;;;;;;;29.20;23.92;;;;;;;;;;4975252;28;20047;-56
2021/12/08 07:19:27;;;;;;;25.67;21.83;;;;;;;;;;4978147;28;20113;-57
2021/12/08 07:21:56;;;;;;;24.90;22.08;;;;;;;;;;4975919;28;20434;-57
2021/12/08 07:24:28;;;;;;;33.50;24.42;;;;;;;;;;4978147;28;20042;-57
2021/12/08 07:26:58;;;;;;;34.67;26.65;;;;;;;;;;4974554;28;20151;-50
2021/12/08 07:29:28;;;;;;;29.45;24.63;;;;;;;;;;4975064;28;20054;-55
2021/12/08 07:32:06;;;;;;;37.55;24.88;;;;;;;;;;4976723;28;20046;-50
2021/12/08 07:34:35;;;;;;;27.25;24.10;;;;;;;;;;4975934;28;20046;-53
2021/12/08 07:37:12;;;;;;;30.50;25.35;;;;;;;;;;4976406;28;20035;-55
2021/12/08 07:39:49;;;;;;;35.47;25.45;;;;;;;;;;4976945;28;20066;-54
2021/12/08 07:42:32;;;;;;;35.45;27.63;;;;;;;;;;4975608;28;20061;-55
2021/12/08 07:45:05;;;;;;;31.20;25.42;;;;;;;;;;4961478;28;20039;-53
2021/12/08 07:47:32;;;;;;;33.45;24.65;;;;;;;;;;4973909;28;20042;-51
2021/12/08 07:50:20;;;;;;;33.10;24.67;;;;;;;;;;4985583;28;20042;-55
2021/12/08 07:52:50;;;;;;;30.30;23.98;;;;;;;;;;4988070;28;20046;-53
2021/12/08 07:55:27;;;;;;;28.00;24.77;;;;;;;;;;4991761;28;20058;-54
2021/12/08 07:57:55;;;;;;;32.00;27.55;;;;;;;;;;4992140;28;20050;-55
2021/12/08 08:00:33;;;;;;;32.70;26.35;;;;;;;;;;4992618;28;20046;-55
2021/12/08 08:03:02;;;;;;;37.65;29.85;;;;;;;;;;4993018;28;20066;-54
2021/12/08 08:05:32;;;;;;;35.35;26.20;;;;;;;;;;4986438;28;20485;-56
2021/12/08 08:08:03;;;;;;;35.40;24.75;;;;;;;;;;4993174;28;20045;-55
2021/12/08 08:10:41;;;;;;;29.88;24.17;;;;;;;;;;4992378;28;20050;-55
2021/12/08 08:13:11;;;;;;;30.38;24.80;;;;;;;;;;4992869;28;20065;-51
2021/12/08 08:15:44;;;;;;;28.45;24.33;;;;;;;;;;4987403;28;20061;-57
2021/12/08 08:18:14;;;;;;;33.35;24.48;;;;;;;;;;4988235;28;20050;-49
2021/12/08 08:20:48;;;;;;;27.10;23.35;;;;;;;;;;4991707;28;20406;-54
2021/12/08 08:23:17;;;;;;;31.77;24.02;;;;;;;;;;4992975;28;20053;-56
2021/12/08 08:25:47;;;;;;;31.25;24.60;;;;;;;;;;4974803;28;20053;-56
2021/12/08 08:28:16;;;;;;;34.83;26.55;;;;;;;;;;4992650;28;20046;-56
2021/12/08 08:30:57;;;;;;;33.92;26.67;;;;;;;;;;4991487;28;20042;-53
2021/12/08 08:33:27;;;;;;;36.13;26.67;;;;;;;;;;4989447;28;20476;-55
2021/12/08 08:35:57;;;;;;;32.75;25.83;;;;;;;;;;4992921;28;20042;-56
2021/12/08 08:38:28;;;;;;;33.45;26.38;;;;;;;;;;4983012;28;20046;-55
2021/12/08 08:41:12;;;;;;;34.35;26.38;;;;;;;;;;4988688;28;20042;-51
2021/12/08 08:43:39;;;;;;;35.72;27.75;;;;;;;;;;4987950;28;20503;-54
2021/12/08 08:46:12;;;;;;;36.97;30.23;;;;;;;;;;4987286;28;20042;-57
2021/12/08 08:49:02;;;;;;;32.92;25.67;;;;;;;;;;4983309;28;20245;-56
2021/12/08 08:51:37;;;;;;;36.08;27.77;;;;;;;;;;4984372;28;20035;-55
2021/12/08 08:54:08;;;;;;;36.75;27.42;;;;;;;;;;4983706;28;20038;-55
2021/12/08 08:56:39;;;;;;;34.47;27.58;;;;;;;;;;4989813;28;20069;-55
2021/12/08 08:59:29;;;;;;;35.65;28.60;;;;;;;;;;4986039;28;20050;-54
2021/12/08 09:01:56;;;;;;;38.47;29.10;;;;;;;;;;4982084;28;20046;-54
2021/12/08 09:04:32;;;;;;;37.10;28.52;;;;;;;;;;4980392;28;20039;-55
2021/12/08 09:07:04;;;;;;;37.90;25.85;;;;;;;;;;4980763;28;20046;-57
2021/12/08 09:09:38;;;;;;;53.10;26.48;;;;;;;;;;4979610;28;20061;-55
2021/12/08 09:12:10;;;;;;;35.45;27.40;;;;;;;;;;4982653;28;20039;-51
2021/12/08 09:14:48;;;;;;;34.90;23.75;;;;;;;;;;4983282;28;20576;-50
2021/12/08 09:17:29;;;;;;;25.73;22.60;;;;;;;;;;4986661;28;20417;-54
2021/12/08 09:20:29;;;;;;;31.17;24.98;;;;;;;;;;4988239;28;20058;-55
2021/12/08 09:23:06;;;;;;;27.58;21.65;;;;;;;;;;4984500;28;20050;-52
2021/12/08 09:25:52;;;;;;;27.80;23.60;;;;;;;;;;4988629;28;20051;-53
2021/12/08 09:28:26;;;;;;;24.40;21.38;;;;;;;;;;4987311;28;20141;-55
2021/12/08 09:30:57;;;;;;;26.80;22.85;;;;;;;;;;4996552;28;20064;-53
2021/12/08 09:33:27;;;;;;;24.45;20.35;;;;;;;;;;5004720;28;20046;-56
2021/12/08 09:36:00;;;;;;;25.02;21.27;;;;;;;;;;4997873;28;20394;-54
2021/12/08 09:38:31;;;;;;;25.63;21.52;;;;;;;;;;4997626;28;20076;-48
2021/12/08 09:41:12;;;;;;;25.60;21.48;;;;;;;;;;4991663;28;20462;-55
2021/12/08 09:43:51;;;;;;;26.80;22.67;;;;;;;;;;5003771;28;20066;-54
2021/12/08 09:46:33;;;;;;;28.08;21.10;;;;;;;;;;4983673;28;20058;-55
2021/12/08 09:49:04;;;;;;;25.55;21.95;;;;;;;;;;4989070;28;20074;-55
2021/12/08 09:51:34;;;;;;;28.60;22.73;;;;;;;;;;4997492;28;20050;-56
2021/12/08 09:54:01;;;;;;;26.80;23.00;;;;;;;;;;4993150;28;20465;-54
2021/12/08 09:56:29;;;;;;;30.65;21.90;;;;;;;;;;4993181;28;20389;-56
2021/12/08 09:58:56;;;;;;;25.73;21.48;;;;;;;;;;4996542;28;20046;-57
2021/12/08 10:01:24;;;;;;;32.45;25.05;;;;;;;;;;4997275;28;20042;-58
2021/12/08 10:03:53;;;;;;;29.02;22.15;;;;;;;;;;4994062;28;20046;-57
2021/12/08 10:06:23;;;;;;;31.92;23.38;;;;;;;;;;4992180;28;20041;-56
2021/12/08 10:08:50;;;;;;;29.00;23.75;;;;;;;;;;4994413;28;20124;-57
2021/12/08 10:11:18;;;;;;;37.88;30.45;;;;;;;;;;4997405;28;20096;-55
2021/12/08 10:13:46;;;;;;;29.35;23.83;;;;;;;;;;5003752;28;20042;-55
2021/12/08 10:16:14;;;;;;;26.35;22.92;;;;;;;;;;5002304;28;20053;-54
2021/12/08 10:18:43;;;;;;;29.85;25.75;;;;;;;;;;4991945;28;20034;-57
2021/12/08 10:21:10;;;;;;;27.83;24.45;;;;;;;;;;4992473;28;20125;-57
2021/12/08 10:23:42;;;;;;;28.85;22.13;;;;;;;;;;5003195;28;20941;-57
2021/12/08 10:26:11;;;;;;;29.95;23.30;;;;;;;;;;4994384;28;20045;-54
2021/12/08 10:28:43;;;;;;;28.60;21.73;;;;;;;;;;4993008;28;20130;-53
2021/12/08 10:31:25;;;;;;;23.70;20.17;;;;;;;;;;4974420;28;20043;-57
2021/12/08 10:37:01;;;;;;;23.25;20.80;;;;;;;;;;4999496;28;20064;-56
2021/12/08 10:39:31;;;;;;;25.65;21.10;;;;;;;;;;4991278;28;20137;-57
2021/12/08 10:41:58;;;;;;;29.30;20.27;;;;;;;;;;4989980;28;20502;-51
2021/12/08 10:47:49;;;;;;;22.40;20.00;;;;;;;;;;4999932;28;20046;-54
2021/12/08 10:56:01;;;;;;;18.85;16.73;;;;;;;;;;4994597;28;20092;-55
2021/12/08 10:58:31;;;;;;;22.90;17.85;;;;;;;;;;4994277;28;20042;-55
2021/12/08 11:01:09;;;;;;;21.42;17.67;;;;;;;;;;4997197;28;20042;-52
2021/12/08 11:03:38;;;;;;;24.63;19.55;;;;;;;;;;4991409;28;20042;-55
2021/12/08 11:06:06;;;;;;;23.52;18.75;;;;;;;;;;4995255;28;20493;-57
2021/12/08 11:08:34;;;;;;;26.10;19.92;;;;;;;;;;5003750;28;20043;-51
2021/12/08 11:11:10;;;;;;;22.70;20.50;;;;;;;;;;4999617;28;20498;-56
2021/12/08 11:13:43;;;;;;;21.73;19.00;;;;;;;;;;4993005;28;20143;-57
2021/12/08 11:16:13;;;;;;;22.38;20.05;;;;;;;;;;4982728;28;20400;-57
2021/12/08 11:18:45;;;;;;;24.80;20.02;;;;;;;;;;4998736;28;20061;-57
2021/12/08 11:21:20;;;;;;;20.27;17.38;;;;;;;;;;4991460;28;20039;-52
2021/12/08 11:24:14;;;;;;;18.48;16.48;;;;;;;;;;4990439;28;20038;-53
2021/12/08 11:26:46;;;;;;;18.50;16.08;;;;;;;;;;4987494;28;20042;-53
2021/12/08 11:29:19;;;;;;;17.75;15.32;;;;;;;;;;4988654;28;20125;-57
2021/12/08 11:31:56;;;;;;;20.88;18.00;;;;;;;;;;4990625;28;20126;-53
2021/12/08 11:34:28;;;;;;;18.17;15.68;;;;;;;;;;4987324;28;20405;-57
2021/12/08 11:37:13;;;;;;;20.80;15.45;;;;;;;;;;4988113;28;20046;-57
2021/12/08 11:39:47;;;;;;;20.92;18.17;;;;;;;;;;4992351;28;20121;-57
2021/12/08 11:42:19;;;;;;;22.10;18.52;;;;;;;;;;4993095;28;20386;-59
2021/12/08 11:44:49;;;;;;;22.10;19.63;;;;;;;;;;4990497;28;20129;-56
2021/12/08 11:47:28;;;;;;;23.25;18.63;;;;;;;;;;4991239;28;20535;-55
2021/12/08 11:49:59;;;;;;;23.15;18.17;;;;;;;;;;4990363;28;20042;-53
2021/12/08 11:52:32;;;;;;;22.88;19.67;;;;;;;;;;4992510;28;20046;-52
2021/12/08 11:55:06;;;;;;;25.73;19.23;;;;;;;;;;4992275;28;20046;-55
2021/12/08 11:57:37;;;;;;;22.67;19.55;;;;;;;;;;4991552;28;20508;-55
2021/12/08 12:00:14;;;;;;;23.08;19.38;;;;;;;;;;4991203;28;20042;-52
2021/12/08 12:02:46;;;;;;;26.88;19.95;;;;;;;;;;4992239;28;20038;-55
2021/12/08 12:05:18;;;;;;;23.95;19.33;;;;;;;;;;4974344;28;20046;-57
2021/12/08 12:07:46;;;;;;;22.50;18.33;;;;;;;;;;4992312;28;20168;-59
2021/12/08 12:10:15;;;;;;;23.45;18.25;;;;;;;;;;4990948;28;20468;-53
2021/12/08 12:12:42;;;;;;;24.20;18.58;;;;;;;;;;4991145;28;20046;-54
2021/12/08 12:15:11;;;;;;;25.48;18.90;;;;;;;;;;4990197;28;20042;-56
2021/12/08 12:17:38;;;;;;;25.95;20.83;;;;;;;;;;4991854;28;20038;-54
2021/12/08 12:20:18;;;;;;;21.15;18.05;;;;;;;;;;4983624;28;20054;-49
2021/12/08 12:22:52;;;;;;;20.48;17.67;;;;;;;;;;4986542;28;20121;-50
2021/12/08 12:25:55;;;;;;;20.42;17.80;;;;;;;;;;4991685;28;20057;-56
2021/12/08 12:28:49;;;;;;;24.00;18.50;;;;;;;;;;4991949;28;20133;-56
2021/12/08 12:31:21;;;;;;;20.60;18.13;;;;;;;;;;4992771;28;20073;-50
2021/12/08 12:33:50;;;;;;;21.45;17.92;;;;;;;;;;4996788;28;20046;-54
2021/12/08 12:36:24;;;;;;;24.73;19.50;;;;;;;;;;5000018;28;20548;-54
2021/12/08 12:38:52;;;;;;;30.50;17.33;;;;;;;;;;4978527;28;20042;-53
2021/12/08 12:41:28;;;;;;;16.65;14.77;;;;;;;;;;4989481;28;20046;-55
2021/12/08 12:44:20;;;;;;;16.25;14.43;;;;;;;;;;4997445;28;20038;-54
2021/12/08 12:47:06;;;;;;;15.75;13.77;;;;;;;;;;4977494;28;20053;-57
2021/12/08 12:49:33;;;;;;;16.50;14.95;;;;;;;;;;4979136;28;20133;-51
2021/12/08 12:52:06;;;;;;;16.08;14.38;;;;;;;;;;4978116;28;20034;-51
2021/12/08 12:54:34;;;;;;;19.48;15.32;;;;;;;;;;4980886;28;20425;-50
2021/12/08 12:57:03;;;;;;;19.30;15.05;;;;;;;;;;4984585;28;20042;-54
2021/12/08 12:59:44;;;;;;;17.02;15.15;;;;;;;;;;4991150;28;20065;-52
2021/12/08 13:02:34;;;;;;;15.90;13.38;;;;;;;;;;4989065;28;20050;-56
2021/12/08 13:05:10;;;;;;;16.85;15.10;;;;;;;;;;4987666;28;20042;-50
2021/12/08 13:07:42;;;;;;;16.50;14.80;;;;;;;;;;4972006;28;20052;-49
2021/12/08 13:10:10;;;;;;;17.65;15.50;;;;;;;;;;4973617;28;20046;-50
2021/12/08 13:12:37;;;;;;;17.80;15.43;;;;;;;;;;4990502;28;20038;-54
2021/12/08 13:15:06;;;;;;;19.83;17.73;;;;;;;;;;4988868;28;20555;-51
2021/12/08 13:17:34;;;;;;;20.30;18.15;;;;;;;;;;4979876;28;20039;-53
2021/12/08 13:20:09;;;;;;;24.10;20.40;;;;;;;;;;4980376;28;20047;-54
2021/12/08 13:22:49;;;;;;;21.38;17.88;;;;;;;;;;4977877;28;20074;-53
2021/12/08 13:29:05;;;;;;;23.40;21.08;;;;;;;;;;4976241;28;20077;-53
2021/12/08 13:31:38;;;;;;;25.70;20.23;;;;;;;;;;4979335;28;20045;-50
2021/12/08 13:34:10;;;;;;;21.40;18.48;;;;;;;;;;4985135;28;20046;-52
2021/12/08 13:36:46;;;;;;;19.55;17.38;;;;;;;;;;4987421;28;20043;-52
2021/12/08 13:39:30;;;;;;;19.85;18.00;;;;;;;;;;4991613;28;20061;-50
2021/12/08 13:42:32;;;;;;;19.23;17.33;;;;;;;;;;4977547;28;20046;-53
2021/12/08 13:45:02;;;;;;;22.55;19.55;;;;;;;;;;4991945;28;20101;-58
2021/12/08 13:47:38;;;;;;;19.77;17.77;;;;;;;;;;4991097;28;20046;-55
2021/12/08 13:50:16;;;;;;;19.85;17.70;;;;;;;;;;4991542;28;20050;-56
2021/12/08 13:53:00;;;;;;;18.80;16.48;;;;;;;;;;4994938;28;20134;-54
2021/12/08 13:55:28;;;;;;;19.55;17.45;;;;;;;;;;4976026;28;20121;-57
2021/12/08 13:58:11;;;;;;;19.20;17.23;;;;;;;;;;4994955;28;20105;-59
2021/12/08 14:00:44;;;;;;;20.92;18.73;;;;;;;;;;4977094;28;20054;-56
2021/12/08 14:03:20;;;;;;;19.65;17.38;;;;;;;;;;4994633;28;20543;-57
2021/12/08 14:05:59;;;;;;;20.90;18.67;;;;;;;;;;4994653;28;20161;-51
2021/12/08 14:08:33;;;;;;;19.98;17.95;;;;;;;;;;4994936;28;20054;-54
2021/12/08 14:11:16;;;;;;;21.02;19.00;;;;;;;;;;4994750;28;20104;-58
2021/12/08 14:13:45;;;;;;;20.48;18.38;;;;;;;;;;4998528;28;20049;-60
2021/12/08 14:16:17;;;;;;;18.40;16.38;;;;;;;;;;4994708;28;20049;-62
2021/12/08 14:18:47;;;;;;;19.80;17.67;;;;;;;;;;4994273;28;20054;-61
2021/12/08 14:21:33;;;;;;;19.83;17.83;;;;;;;;;;4995221;28;20047;-60
2021/12/08 14:24:22;;;;;;;17.63;15.80;;;;;;;;;;4995288;28;20478;-58
2021/12/08 14:26:50;;;;;;;19.42;17.35;;;;;;;;;;4975999;28;20050;-58
2021/12/08 14:29:20;;;;;;;19.77;17.65;;;;;;;;;;4995133;28;20042;-58
2021/12/08 14:31:52;;;;;;;17.70;15.88;;;;;;;;;;4995340;28;20141;-58
2021/12/08 14:34:22;;;;;;;19.13;17.13;;;;;;;;;;4994573;28;20133;-57
2021/12/08 14:36:58;;;;;;;17.83;15.55;;;;;;;;;;4995259;28;20042;-58
2021/12/08 14:39:37;;;;;;;19.17;15.23;;;;;;;;;;4995231;28;20702;-56
2021/12/08 14:42:10;;;;;;;16.17;14.48;;;;;;;;;;4995180;28;20489;-56
2021/12/08 14:44:42;;;;;;;15.57;13.98;;;;;;;;;;4994786;28;20043;-58
2021/12/08 14:47:14;;;;;;;15.57;14.02;;;;;;;;;;4975087;28;20054;-55
2021/12/08 14:49:47;;;;;;;18.23;14.20;;;;;;;;;;4983393;28;20074;-57
2021/12/08 14:52:17;;;;;;;17.02;15.23;;;;;;;;;;4991972;28;20066;-56
2021/12/08 14:54:49;;;;;;;15.70;14.10;;;;;;;;;;4989187;28;20393;-58
2021/12/08 14:57:25;;;;;;;16.42;14.75;;;;;;;;;;4986566;28;20050;-52
2021/12/08 15:00:12;;;;;;;14.35;12.95;;;;;;;;;;4986032;28;20166;-54
2021/12/08 15:02:45;;;;;;;14.85;13.20;;;;;;;;;;4992645;28;20050;-60
2021/12/08 15:05:15;;;;;;;15.30;13.23;;;;;;;;;;4993396;28;20049;-56
2021/12/08 15:07:43;;;;;;;14.48;13.07;;;;;;;;;;4994193;28;20046;-56
2021/12/08 15:10:11;;;;;;;16.17;14.57;;;;;;;;;;4993641;28;20069;-59
2021/12/08 15:12:41;;;;;;;17.63;15.93;;;;;;;;;;4992185;28;20433;-57
2021/12/08 15:15:11;;;;;;;19.50;16.23;;;;;;;;;;4992415;28;20046;-57
2021/12/08 15:17:38;;;;;;;18.17;15.75;;;;;;;;;;4992355;28;20077;-57
2021/12/08 15:20:07;;;;;;;18.75;16.13;;;;;;;;;;4992420;28;20053;-57
2021/12/08 15:22:40;;;;;;;17.98;16.25;;;;;;;;;;4992509;28;20445;-57
2021/12/08 15:25:20;;;;;;;17.75;16.02;;;;;;;;;;4992624;28;20508;-56
2021/12/08 15:27:52;;;;;;;15.63;14.15;;;;;;;;;;4994467;28;20042;-57
2021/12/08 15:30:39;;;;;;;16.67;15.07;;;;;;;;;;4994123;28;20049;-56
2021/12/08 15:33:27;;;;;;;17.48;15.82;;;;;;;;;;4993756;28;20045;-57
2021/12/08 15:36:24;;;;;;;18.27;16.48;;;;;;;;;;4994077;28;20046;-57
2021/12/08 15:38:53;;;;;;;19.08;16.10;;;;;;;;;;4994195;28;20054;-57
2021/12/08 15:41:22;;;;;;;19.20;17.27;;;;;;;;;;4988375;28;20056;-56
2021/12/08 15:44:06;;;;;;;18.25;16.45;;;;;;;;;;4993369;28;20501;-55
2021/12/08 15:46:33;;;;;;;19.45;17.45;;;;;;;;;;4986341;28;20046;-54